Time;durP1;ratioP1;P1;durP2;ratioP2;P2;SDS_P1;SDS_P2;PMS_P1;PMS_P2;Temp;Humidity;BMP_temperature;BMP_pressure;BME280_temperature;BME280_humidity;BME280_pressure;Samples;Min_cycle;Max_cycle;Signal;HPM_P1;HPM_P2
2022/01/06 00:00:43;;;;;;;14.20;1.20;;;2.60;99.90;;;;;;4996566;28;20018;-89
2022/01/06 00:03:09;;;;;;;18.42;1.10;;;2.60;99.90;;;;;;5000187;28;20034;-90
2022/01/06 00:05:34;;;;;;;17.70;1.23;;;2.60;99.90;;;;;;4997110;28;20038;-89
2022/01/06 00:08:01;;;;;;;11.30;1.83;;;2.70;99.90;;;;;;4995292;28;20037;-89
2022/01/06 00:10:29;;;;;;;27.38;1.75;;;2.70;99.90;;;;;;4991855;28;20075;-89
2022/01/06 00:13:14;;;;;;;13.85;2.40;;;2.70;99.90;;;;;;4997939;28;20398;-88
2022/01/06 00:23:30;;;;;;;18.90;1.95;;;2.60;99.90;;;;;;4998087;28;20037;-89
2022/01/06 00:25:57;;;;;;;22.80;1.67;;;2.60;99.90;;;;;;4989303;28;20037;-90
2022/01/06 00:28:23;;;;;;;11.95;1.38;;;2.60;99.90;;;;;;4994584;28;20030;-89
2022/01/06 00:30:49;;;;;;;17.85;1.05;;;2.60;99.90;;;;;;4997298;28;20056;-89
2022/01/06 00:33:16;;;;;;;16.95;1.00;;;2.60;99.90;;;;;;4995074;28;20116;-89
2022/01/06 00:35:41;;;;;;;19.63;1.73;;;2.60;99.90;;;;;;4988928;28;20590;-89
2022/01/06 00:38:07;;;;;;;19.77;2.05;;;2.70;99.90;;;;;;4987581;28;20121;-89
2022/01/06 00:40:37;;;;;;;17.05;1.80;;;2.60;99.90;;;;;;4998961;28;20053;-90
2022/01/06 00:43:04;;;;;;;26.60;2.55;;;2.60;99.90;;;;;;4995122;28;20030;-90
2022/01/06 00:45:31;;;;;;;24.50;1.92;;;2.60;99.90;;;;;;4983617;28;20467;-90
2022/01/06 00:47:57;;;;;;;23.35;2.00;;;2.70;99.90;;;;;;4998999;28;20056;-89
2022/01/06 00:50:22;;;;;;;9.65;1.25;;;2.60;99.90;;;;;;4997375;28;20081;-90
2022/01/06 00:52:48;;;;;;;17.35;1.83;;;2.60;99.90;;;;;;4998212;28;20431;-89
2022/01/06 00:55:14;;;;;;;17.23;1.20;;;2.70;99.90;;;;;;4998571;28;20026;-89
2022/01/06 00:57:41;;;;;;;20.63;1.50;;;2.60;99.90;;;;;;5006312;28;20525;-90
2022/01/06 01:00:08;;;;;;;21.20;1.50;;;2.60;99.90;;;;;;5002687;28;20033;-88
2022/01/06 01:02:33;;;;;;;18.17;1.75;;;2.60;99.90;;;;;;4997204;28;20084;-89
2022/01/06 01:04:59;;;;;;;19.63;1.08;;;2.60;99.90;;;;;;4991265;28;20030;-89
2022/01/06 01:07:24;;;;;;;15.85;2.17;;;2.50;99.90;;;;;;4998957;28;20026;-89
2022/01/06 01:09:50;;;;;;;19.33;1.83;;;2.50;99.90;;;;;;4994028;28;20510;-89
2022/01/06 01:12:15;;;;;;;18.17;0.82;;;2.50;99.90;;;;;;4997396;28;20609;-89
2022/01/06 01:15:23;;;;;;;18.83;1.67;;;2.40;99.90;;;;;;4997514;28;20559;-89
2022/01/06 01:17:29;;;;;;;15.52;1.00;;;2.40;99.90;;;;;;4994816;28;20073;-89
2022/01/06 01:19:55;;;;;;;16.85;1.08;;;2.30;99.90;;;;;;4993678;28;20478;-89
2022/01/06 01:22:21;;;;;;;13.38;1.73;;;2.30;99.90;;;;;;4981305;28;20030;-89
2022/01/06 01:24:46;;;;;;;14.93;1.65;;;2.30;99.90;;;;;;4995828;28;20017;-89
2022/01/06 01:27:14;;;;;;;15.05;1.13;;;2.20;99.90;;;;;;4997338;28;20032;-90
2022/01/06 01:29:51;;;;;;;18.88;1.52;;;2.20;99.90;;;;;;4988573;28;20034;-90
2022/01/06 01:32:16;;;;;;;14.18;0.93;;;2.20;99.90;;;;;;4991357;28;20035;-89
2022/01/06 01:34:45;;;;;;;23.15;1.42;;;2.20;99.90;;;;;;4996262;28;20029;-89
2022/01/06 01:37:11;;;;;;;17.48;1.60;;;2.20;99.90;;;;;;4993174;28;20028;-89
2022/01/06 01:39:36;;;;;;;15.93;1.15;;;2.20;99.90;;;;;;4997413;28;20120;-89
2022/01/06 01:42:02;;;;;;;21.05;1.20;;;2.20;99.90;;;;;;4995488;28;20034;-89
2022/01/06 01:44:28;;;;;;;17.92;1.27;;;2.20;99.90;;;;;;4997443;28;20053;-89
2022/01/06 01:47:02;;;;;;;14.45;1.67;;;2.20;99.90;;;;;;4994019;28;20132;-88
2022/01/06 01:49:33;;;;;;;13.85;1.30;;;2.10;99.90;;;;;;4997813;28;20046;-88
2022/01/06 01:51:58;;;;;;;13.30;1.15;;;2.10;99.90;;;;;;4997081;28;20030;-90
2022/01/06 01:54:24;;;;;;;12.27;1.15;;;2.10;99.90;;;;;;4993411;28;20026;-89
2022/01/06 01:56:51;;;;;;;13.82;1.23;;;2.00;99.90;;;;;;4996082;28;20088;-89
2022/01/06 01:59:17;;;;;;;14.07;1.33;;;2.10;99.90;;;;;;4996256;28;20045;-88
2022/01/06 02:01:42;;;;;;;11.52;1.23;;;2.00;99.90;;;;;;4997534;28;20026;-88
2022/01/06 02:04:08;;;;;;;15.60;1.00;;;2.00;99.90;;;;;;4994607;28;20069;-89
2022/01/06 02:06:34;;;;;;;17.92;1.75;;;2.00;99.90;;;;;;4988348;28;20021;-89
2022/01/06 02:09:00;;;;;;;7.95;0.80;;;2.10;99.90;;;;;;5007931;28;20026;-89
2022/01/06 02:11:26;;;;;;;14.27;1.15;;;2.00;99.90;;;;;;4997178;28;20025;-89
2022/01/06 02:13:53;;;;;;;10.88;0.80;;;2.10;99.90;;;;;;5003070;28;20053;-89
2022/01/06 02:16:21;;;;;;;10.30;0.82;;;2.10;99.90;;;;;;4992743;28;20039;-88
2022/01/06 02:18:48;;;;;;;10.18;1.10;;;2.10;99.90;;;;;;4992698;28;20064;-88
2022/01/06 02:21:14;;;;;;;10.55;0.90;;;2.10;99.90;;;;;;4989661;28;20038;-88
2022/01/06 02:23:39;;;;;;;22.38;1.40;;;2.10;99.90;;;;;;4992935;28;20041;-89
2022/01/06 02:26:05;;;;;;;9.13;0.70;;;2.00;99.90;;;;;;4993985;28;20033;-90
2022/01/06 02:28:30;;;;;;;15.43;0.85;;;2.00;99.90;;;;;;4984843;28;20050;-90
2022/01/06 02:30:57;;;;;;;12.27;1.77;;;2.00;99.90;;;;;;4993775;28;20034;-88
2022/01/06 02:33:24;;;;;;;8.57;0.60;;;2.00;99.90;;;;;;4993899;28;20033;-89
2022/01/06 02:35:51;;;;;;;10.25;1.08;;;1.90;99.90;;;;;;4993027;28;20022;-89
2022/01/06 02:38:17;;;;;;;21.30;1.25;;;1.90;99.90;;;;;;4990763;28;20030;-88
2022/01/06 02:40:44;;;;;;;17.65;0.90;;;1.90;99.90;;;;;;4988633;28;20483;-89
2022/01/06 02:43:10;;;;;;;10.35;1.00;;;1.90;99.90;;;;;;4989294;28;20039;-89
2022/01/06 02:45:36;;;;;;;15.05;2.10;;;1.90;99.90;;;;;;4989945;28;20030;-89
2022/01/06 02:48:08;;;;;;;10.63;1.23;;;1.90;99.90;;;;;;4989588;28;20027;-89
2022/01/06 02:50:36;;;;;;;15.52;1.33;;;1.90;99.90;;;;;;4992271;28;20030;-88
2022/01/06 02:53:01;;;;;;;14.55;1.00;;;1.90;99.90;;;;;;4991325;28;20113;-88
2022/01/06 02:55:27;;;;;;;14.30;0.70;;;1.90;99.90;;;;;;4993585;28;20053;-89
2022/01/06 02:57:52;;;;;;;14.32;1.08;;;1.90;99.90;;;;;;4986899;28;20152;-89
2022/01/06 03:00:18;;;;;;;16.63;1.30;;;1.90;99.90;;;;;;4988929;28;20023;-89
2022/01/06 03:02:46;;;;;;;9.82;0.60;;;1.90;99.90;;;;;;5002852;28;20375;-90
2022/01/06 03:05:16;;;;;;;15.55;1.08;;;1.90;99.90;;;;;;4988739;28;20031;-89
2022/01/06 03:07:42;;;;;;;11.88;1.05;;;1.90;99.90;;;;;;4984348;28;20042;-89
2022/01/06 03:10:12;;;;;;;17.80;1.02;;;1.80;99.90;;;;;;4986392;28;20031;-89
2022/01/06 03:12:41;;;;;;;15.93;1.02;;;1.70;99.90;;;;;;4983734;28;20395;-90
2022/01/06 03:15:17;;;;;;;13.90;0.82;;;1.60;99.90;;;;;;4992957;28;20081;-89
2022/01/06 03:17:50;;;;;;;17.40;1.25;;;1.60;99.90;;;;;;4980435;28;20034;-88
2022/01/06 03:20:17;;;;;;;13.60;0.93;;;1.50;99.90;;;;;;4992430;28;20384;-90
2022/01/06 03:22:43;;;;;;;13.07;1.40;;;1.60;99.90;;;;;;4991955;28;20076;-89
2022/01/06 03:25:11;;;;;;;17.33;1.20;;;1.60;99.90;;;;;;4994112;28;20023;-89
2022/01/06 03:27:37;;;;;;;15.60;1.67;;;1.60;99.90;;;;;;4994357;28;20080;-89
2022/01/06 03:30:05;;;;;;;12.98;1.02;;;1.70;99.90;;;;;;4993255;28;20037;-89
2022/01/06 03:32:31;;;;;;;19.13;1.08;;;1.70;99.90;;;;;;4995906;28;20026;-89
2022/01/06 03:34:56;;;;;;;19.48;1.17;;;1.80;99.90;;;;;;4995989;28;20060;-88
2022/01/06 03:37:22;;;;;;;16.45;1.10;;;1.80;99.90;;;;;;4992160;28;20431;-89
2022/01/06 03:39:47;;;;;;;18.52;1.40;;;1.80;99.90;;;;;;4994279;28;20231;-89
2022/01/06 03:42:13;;;;;;;11.57;0.80;;;1.80;99.90;;;;;;4995995;28;20050;-89
2022/01/06 03:44:39;;;;;;;14.23;0.90;;;1.80;99.90;;;;;;5002874;28;20569;-89
2022/01/06 03:47:05;;;;;;;13.68;0.60;;;1.80;99.90;;;;;;5006442;28;20073;-89
2022/01/06 03:49:31;;;;;;;14.10;0.82;;;1.80;99.90;;;;;;4984931;28;20038;-90
2022/01/06 03:51:57;;;;;;;18.20;1.00;;;1.80;99.90;;;;;;4994764;28;20033;-89
2022/01/06 03:54:22;;;;;;;10.38;1.00;;;1.80;99.90;;;;;;4996357;28;20034;-89
2022/01/06 03:56:49;;;;;;;15.15;0.95;;;1.80;99.90;;;;;;4996286;28;20026;-89
2022/01/06 03:59:18;;;;;;;19.25;2.10;;;1.80;99.90;;;;;;4996147;28;20402;-89
2022/01/06 04:01:45;;;;;;;14.07;1.02;;;1.80;99.90;;;;;;4996222;28;20030;-90
2022/01/06 04:04:11;;;;;;;20.73;1.10;;;1.70;99.90;;;;;;4989761;28;20027;-89
2022/01/06 04:06:36;;;;;;;14.98;1.20;;;1.70;99.90;;;;;;4994742;28;20379;-89
2022/01/06 04:09:03;;;;;;;14.80;1.27;;;1.70;99.90;;;;;;4991564;28;20022;-90
2022/01/06 04:11:29;;;;;;;12.40;0.90;;;1.60;99.90;;;;;;4995422;28;20026;-89
2022/01/06 04:13:55;;;;;;;18.38;1.00;;;1.50;99.90;;;;;;4988055;28;20013;-90
2022/01/06 04:16:20;;;;;;;11.38;0.98;;;1.50;99.90;;;;;;4992838;28;20050;-90
2022/01/06 04:18:46;;;;;;;9.73;1.08;;;1.50;99.90;;;;;;4990902;28;20145;-89
2022/01/06 04:21:12;;;;;;;18.77;1.63;;;1.50;99.90;;;;;;4991994;28;20026;-90
2022/01/06 04:23:37;;;;;;;15.35;1.13;;;1.50;99.90;;;;;;4992273;28;20033;-90
2022/01/06 04:26:03;;;;;;;13.25;1.30;;;1.50;99.90;;;;;;4996520;28;20049;-89
2022/01/06 04:28:29;;;;;;;15.02;1.52;;;1.50;99.90;;;;;;4994789;28;20030;-89
2022/01/06 04:30:54;;;;;;;14.45;1.10;;;1.40;99.90;;;;;;4991656;28;20562;-90
2022/01/06 04:33:20;;;;;;;23.20;2.33;;;1.40;99.90;;;;;;4992543;28;20066;-90
2022/01/06 04:35:45;;;;;;;15.77;0.70;;;1.40;99.90;;;;;;4983229;28;20026;-90
2022/01/06 04:38:11;;;;;;;11.23;0.95;;;1.30;99.90;;;;;;4992689;28;20049;-90
2022/01/06 04:40:37;;;;;;;14.93;1.70;;;1.30;99.90;;;;;;4988542;28;20018;-90
2022/01/06 04:43:02;;;;;;;10.95;1.67;;;1.30;99.90;;;;;;4994516;28;20494;-90
2022/01/06 04:45:28;;;;;;;18.05;0.73;;;1.20;99.90;;;;;;4995668;28;20022;-90
2022/01/06 04:47:53;;;;;;;13.27;0.98;;;1.20;99.90;;;;;;4995702;28;20026;-90
2022/01/06 04:50:19;;;;;;;10.88;1.00;;;1.30;99.90;;;;;;4994829;28;20037;-89
2022/01/06 04:52:45;;;;;;;17.70;1.45;;;1.30;99.90;;;;;;4995279;28;20483;-90
2022/01/06 04:55:10;;;;;;;16.80;1.35;;;1.30;99.90;;;;;;4985147;28;20031;-89
2022/01/06 04:57:36;;;;;;;12.00;0.88;;;1.20;99.90;;;;;;4990186;28;20026;-90
2022/01/06 05:00:07;;;;;;;12.60;1.73;;;1.10;99.90;;;;;;4994641;28;20026;-91
2022/01/06 05:02:32;;;;;;;14.73;1.08;;;1.10;99.90;;;;;;4989472;28;20034;-90
2022/01/06 05:04:58;;;;;;;15.98;1.00;;;1.00;99.90;;;;;;4992522;28;20022;-90
2022/01/06 05:07:23;;;;;;;15.52;1.30;;;1.00;99.90;;;;;;4987424;28;20022;-90
2022/01/06 05:09:49;;;;;;;8.00;0.65;;;0.90;99.90;;;;;;4990680;28;20030;-91
2022/01/06 05:12:14;;;;;;;21.58;1.65;;;0.90;99.90;;;;;;4994406;28;20033;-90
2022/01/06 05:14:40;;;;;;;15.30;1.08;;;0.80;99.90;;;;;;4995903;28;20022;-91
2022/01/06 05:17:07;;;;;;;16.83;0.93;;;0.70;99.90;;;;;;4993101;28;20491;-91
2022/01/06 05:19:32;;;;;;;12.85;0.65;;;0.70;99.90;;;;;;4982846;28;20038;-90
2022/01/06 05:21:59;;;;;;;15.30;1.00;;;0.70;99.90;;;;;;4993637;28;20361;-91
2022/01/06 05:24:25;;;;;;;14.55;0.95;;;0.70;99.90;;;;;;4983516;28;20026;-90
2022/01/06 05:26:51;;;;;;;10.77;1.02;;;0.70;99.90;;;;;;4993579;28;20027;-91
2022/01/06 05:29:16;;;;;;;15.02;1.02;;;0.70;99.90;;;;;;4992163;28;20018;-91
2022/01/06 05:31:42;;;;;;;20.20;1.25;;;0.70;99.90;;;;;;4986874;28;20029;-91
2022/01/06 05:34:08;;;;;;;22.50;1.77;;;0.70;99.90;;;;;;4996234;28;20041;-91
2022/01/06 05:36:34;;;;;;;15.32;2.05;;;0.70;99.90;;;;;;5003176;28;20035;-90
2022/01/06 05:39:00;;;;;;;21.77;1.30;;;0.70;99.90;;;;;;4989984;28;20038;-91
2022/01/06 05:41:26;;;;;;;18.50;1.20;;;0.60;99.90;;;;;;4994106;28;20049;-90
2022/01/06 05:43:52;;;;;;;13.77;0.73;;;0.70;99.90;;;;;;4989457;28;20167;-90
2022/01/06 05:46:18;;;;;;;15.55;0.88;;;0.70;99.90;;;;;;4991584;28;20027;-90
2022/01/06 05:48:44;;;;;;;13.20;1.17;;;0.70;99.90;;;;;;4993021;28;20028;-90
2022/01/06 05:51:10;;;;;;;11.60;1.40;;;0.70;99.90;;;;;;4994038;28;20022;-89
2022/01/06 05:53:36;;;;;;;17.02;0.98;;;0.70;99.90;;;;;;4990449;28;20436;-89
2022/01/06 05:56:02;;;;;;;18.75;1.70;;;0.70;99.90;;;;;;4992489;28;20054;-89
2022/01/06 05:58:27;;;;;;;9.15;0.52;;;0.80;99.90;;;;;;4990020;28;20113;-89
2022/01/06 06:00:53;;;;;;;18.67;1.08;;;0.90;99.90;;;;;;4984270;28;20030;-89
2022/01/06 06:03:18;;;;;;;12.98;0.88;;;0.80;99.90;;;;;;4994117;28;20041;-90
2022/01/06 06:05:44;;;;;;;19.73;1.65;;;0.90;99.90;;;;;;4993256;28;20034;-90
2022/01/06 06:08:10;;;;;;;13.77;1.75;;;0.80;99.90;;;;;;4991412;28;20037;-90
2022/01/06 06:10:36;;;;;;;11.77;0.85;;;0.80;99.90;;;;;;4994450;28;20387;-90
2022/01/06 06:13:02;;;;;;;12.05;0.88;;;0.70;99.90;;;;;;4994127;28;20038;-90
2022/01/06 06:15:33;;;;;;;10.73;1.27;;;0.70;99.90;;;;;;4993700;28;20042;-90
2022/01/06 06:18:00;;;;;;;12.23;0.70;;;0.60;99.90;;;;;;4994553;28;20041;-90
2022/01/06 06:20:25;;;;;;;14.30;0.60;;;0.60;99.90;;;;;;4994413;28;20427;-90
2022/01/06 06:22:52;;;;;;;7.78;0.80;;;0.50;99.90;;;;;;4988616;28;20064;-90
2022/01/06 06:25:17;;;;;;;12.32;0.70;;;0.60;99.90;;;;;;4994053;28;20471;-90
2022/01/06 06:27:43;;;;;;;17.63;1.17;;;0.50;99.90;;;;;;4993315;28;20029;-90
2022/01/06 06:30:09;;;;;;;12.25;0.90;;;0.40;99.90;;;;;;4989448;28;20027;-90
2022/01/06 06:32:35;;;;;;;11.60;0.88;;;0.40;99.90;;;;;;4980414;28;20031;-89
2022/01/06 06:35:02;;;;;;;10.07;1.02;;;0.30;99.90;;;;;;4993590;28;20491;-90
2022/01/06 06:37:28;;;;;;;18.02;1.15;;;0.30;99.90;;;;;;4991120;28;20053;-90
2022/01/06 06:39:54;;;;;;;16.08;0.80;;;0.30;99.90;;;;;;4989843;28;20110;-90
2022/01/06 06:42:19;;;;;;;9.98;1.17;;;0.20;99.90;;;;;;4996472;28;20527;-91
2022/01/06 06:44:45;;;;;;;6.97;0.50;;;0.30;99.90;;;;;;4986280;28;20023;-89
2022/01/06 06:47:11;;;;;;;16.13;1.70;;;0.30;99.90;;;;;;4991564;28;20031;-90
2022/01/06 06:49:37;;;;;;;15.65;1.52;;;0.20;99.90;;;;;;4992363;28;20034;-89
2022/01/06 06:52:03;;;;;;;9.75;0.82;;;0.20;99.90;;;;;;4985149;28;20549;-89
2022/01/06 06:54:28;;;;;;;12.65;0.73;;;0.10;99.90;;;;;;4984721;28;20113;-89
2022/01/06 06:56:54;;;;;;;14.85;0.65;;;0.00;99.90;;;;;;4991677;28;20038;-89
2022/01/06 06:59:19;;;;;;;10.02;1.10;;;0.00;99.90;;;;;;4984295;28;20070;-89
2022/01/06 07:01:45;;;;;;;13.38;1.02;;;0.00;99.90;;;;;;4992268;28;20022;-89
2022/01/06 07:04:10;;;;;;;14.40;1.10;;;-0.10;99.90;;;;;;4994962;28;20513;-89
2022/01/06 07:06:36;;;;;;;15.18;1.35;;;-0.20;99.90;;;;;;4998272;28;20023;-88
2022/01/06 07:09:02;;;;;;;16.48;1.40;;;-0.10;99.90;;;;;;4998493;28;20031;-90
2022/01/06 07:11:27;;;;;;;12.80;1.10;;;-0.10;99.90;;;;;;4994936;28;20023;-90
2022/01/06 07:13:53;;;;;;;14.38;1.40;;;-0.10;99.90;;;;;;4994396;28;20129;-90
2022/01/06 07:16:18;;;;;;;20.30;1.27;;;-0.10;99.90;;;;;;5003498;28;20101;-89
2022/01/06 07:18:44;;;;;;;17.70;1.65;;;-0.10;99.90;;;;;;4990723;28;20038;-89
2022/01/06 07:21:09;;;;;;;12.52;1.52;;;0.00;99.90;;;;;;4997848;28;20050;-89
2022/01/06 07:23:36;;;;;;;13.55;2.47;;;0.10;99.90;;;;;;4998514;28;20405;-90
2022/01/06 07:26:02;;;;;;;20.02;1.75;;;0.10;99.90;;;;;;4995236;28;20049;-90
2022/01/06 07:28:27;;;;;;;17.08;1.80;;;0.20;99.90;;;;;;4981148;28;20030;-89
2022/01/06 07:30:53;;;;;;;14.10;1.50;;;0.20;99.90;;;;;;4997418;28;20101;-89
2022/01/06 07:33:18;;;;;;;16.40;1.77;;;0.30;99.90;;;;;;4999474;28;20165;-89
2022/01/06 07:35:44;;;;;;;15.05;1.90;;;0.30;99.90;;;;;;4993996;28;20101;-88
2022/01/06 07:38:09;;;;;;;10.07;1.80;;;0.40;99.90;;;;;;4996650;28;20034;-90
2022/01/06 07:40:35;;;;;;;11.48;1.48;;;0.40;99.90;;;;;;4997235;28;20030;-89
2022/01/06 07:43:00;;;;;;;20.70;1.58;;;0.50;99.90;;;;;;4993805;28;20399;-89
2022/01/06 07:45:26;;;;;;;11.73;1.95;;;0.50;99.90;;;;;;4995980;28;20022;-89
2022/01/06 07:48:00;;;;;;;15.00;1.55;;;0.50;99.90;;;;;;4996177;28;20058;-88
2022/01/06 07:50:34;;;;;;;15.65;1.85;;;0.50;99.90;;;;;;4994922;28;20026;-89
2022/01/06 07:53:00;;;;;;;14.52;1.23;;;0.60;99.90;;;;;;4992382;28;20026;-88
2022/01/06 07:55:26;;;;;;;18.15;3.38;;;0.60;99.90;;;;;;4989143;28;20167;-89
2022/01/06 07:57:54;;;;;;;19.30;2.83;;;0.60;99.90;;;;;;5008056;28;20042;-89
2022/01/06 08:00:20;;;;;;;16.77;1.30;;;0.70;99.90;;;;;;4994406;28;20077;-90
2022/01/06 08:02:46;;;;;;;17.42;1.67;;;0.70;99.90;;;;;;4992495;28;20189;-92
2022/01/06 08:05:14;;;;;;;17.50;1.80;;;0.80;99.90;;;;;;4996749;28;20080;-90
2022/01/06 08:07:40;;;;;;;9.88;1.15;;;0.80;99.90;;;;;;4997500;28;20057;-89
2022/01/06 08:10:07;;;;;;;13.48;2.03;;;0.80;99.90;;;;;;4993998;28;20079;-89
2022/01/06 08:12:32;;;;;;;15.93;2.03;;;0.90;99.90;;;;;;4992382;28;20034;-88
2022/01/06 08:14:58;;;;;;;13.45;1.48;;;0.90;99.90;;;;;;4993940;28;21009;-89
2022/01/06 08:17:23;;;;;;;21.88;1.65;;;0.90;99.90;;;;;;4999163;28;20056;-89
2022/01/06 08:19:49;;;;;;;23.95;1.67;;;0.90;99.90;;;;;;4998737;28;20038;-90
2022/01/06 08:22:15;;;;;;;16.55;2.20;;;0.80;99.90;;;;;;4999213;28;20037;-90
2022/01/06 08:24:40;;;;;;;12.70;1.77;;;0.80;99.90;;;;;;5000056;28;20426;-90
2022/01/06 08:27:08;;;;;;;15.82;1.83;;;0.80;99.90;;;;;;4992733;28;20030;-89
2022/01/06 08:29:41;;;;;;;22.73;1.67;;;0.90;99.90;;;;;;4994588;28;20109;-89
2022/01/06 08:32:07;;;;;;;15.30;2.63;;;0.90;99.90;;;;;;4985478;28;20026;-90
2022/01/06 08:34:36;;;;;;;14.43;1.20;;;0.90;99.90;;;;;;4999510;28;20030;-89
2022/01/06 08:37:02;;;;;;;16.95;2.13;;;1.00;99.90;;;;;;4994889;28;20550;-88
2022/01/06 08:39:28;;;;;;;17.67;1.35;;;1.00;99.90;;;;;;4994935;28;20053;-88
2022/01/06 08:41:54;;;;;;;14.25;1.33;;;1.00;99.90;;;;;;4999257;28;20026;-89
2022/01/06 08:44:21;;;;;;;14.93;1.60;;;1.00;99.90;;;;;;4985366;28;20026;-89
2022/01/06 08:46:48;;;;;;;11.15;0.90;;;1.00;99.90;;;;;;4998885;28;20378;-89
2022/01/06 08:49:15;;;;;;;14.65;1.33;;;1.00;99.90;;;;;;4990366;28;20100;-89
2022/01/06 08:51:41;;;;;;;13.70;1.27;;;1.00;99.90;;;;;;4994622;28;20112;-89
2022/01/06 08:54:07;;;;;;;11.60;1.48;;;1.00;99.90;;;;;;4992430;28;20126;-87
2022/01/06 08:56:34;;;;;;;12.25;1.27;;;1.00;99.90;;;;;;4993643;28;20068;-86
2022/01/06 08:59:00;;;;;;;12.38;1.35;;;1.00;99.90;;;;;;4996268;28;20167;-88
2022/01/06 09:01:27;;;;;;;18.30;1.30;;;1.10;99.90;;;;;;4992860;28;20114;-88
2022/01/06 09:03:52;;;;;;;11.10;1.60;;;1.10;99.90;;;;;;4985883;28;20089;-88
2022/01/06 09:06:20;;;;;;;8.50;1.80;;;1.20;99.90;;;;;;4986285;28;20501;-89
2022/01/06 09:08:45;;;;;;;14.55;2.13;;;1.20;99.90;;;;;;4993490;28;20236;-87
2022/01/06 09:11:11;;;;;;;17.13;2.22;;;1.30;99.90;;;;;;4997404;28;20069;-90
2022/01/06 09:13:36;;;;;;;16.80;2.58;;;1.30;99.90;;;;;;4997514;28;20037;-88
2022/01/06 09:16:02;;;;;;;15.63;2.38;;;1.40;99.90;;;;;;4997842;28;20097;-88
2022/01/06 09:18:28;;;;;;;28.58;3.00;;;1.40;99.90;;;;;;4994628;28;20498;-88
2022/01/06 09:20:53;;;;;;;16.48;2.90;;;1.50;99.90;;;;;;4990708;28;20030;-90
2022/01/06 09:23:19;;;;;;;17.05;2.70;;;1.50;99.90;;;;;;4998417;28;20434;-89
2022/01/06 09:25:44;;;;;;;17.02;2.90;;;1.50;99.90;;;;;;4994823;28;20026;-89
2022/01/06 09:28:10;;;;;;;15.18;3.80;;;1.60;99.90;;;;;;4990260;28;20029;-87
2022/01/06 09:30:36;;;;;;;17.50;2.78;;;1.60;99.90;;;;;;4988593;28;20057;-86
2022/01/06 09:33:02;;;;;;;19.52;3.88;;;1.70;99.90;;;;;;4996195;28;20029;-88
2022/01/06 09:35:28;;;;;;;17.85;3.25;;;1.70;99.90;;;;;;5010698;28;20036;-89
2022/01/06 09:37:53;;;;;;;20.30;3.00;;;1.80;99.90;;;;;;5021928;28;20043;-90
2022/01/06 09:40:19;;;;;;;17.00;3.25;;;1.80;99.90;;;;;;5000687;28;20033;-88
2022/01/06 09:42:45;;;;;;;17.90;3.00;;;1.90;99.90;;;;;;5014824;28;20037;-89
2022/01/06 09:45:11;;;;;;;12.80;2.97;;;2.00;99.90;;;;;;4998552;28;20037;-90
2022/01/06 09:47:37;;;;;;;18.00;2.53;;;2.00;99.90;;;;;;4993042;28;20022;-90
2022/01/06 09:50:04;;;;;;;25.00;2.65;;;2.10;99.90;;;;;;4989757;28;20055;-89
2022/01/06 09:52:30;;;;;;;17.48;2.67;;;2.10;99.90;;;;;;4997651;28;20478;-89
2022/01/06 09:54:56;;;;;;;16.10;2.78;;;2.20;99.90;;;;;;4998122;28;20036;-90
2022/01/06 09:57:21;;;;;;;15.52;3.13;;;2.30;99.90;;;;;;5012550;28;20113;-90
2022/01/06 09:59:48;;;;;;;23.83;3.20;;;2.30;99.90;;;;;;4996247;28;20029;-87
2022/01/06 10:02:17;;;;;;;17.83;2.78;;;2.40;99.90;;;;;;4997814;28;20026;-87
2022/01/06 10:04:44;;;;;;;18.95;2.90;;;2.40;99.90;;;;;;4996138;28;20839;-89
2022/01/06 10:07:10;;;;;;;10.18;2.05;;;2.50;99.90;;;;;;4994919;28;20034;-88
2022/01/06 10:09:38;;;;;;;17.30;2.55;;;2.50;99.90;;;;;;4986008;28;20034;-89
2022/01/06 10:12:11;;;;;;;19.02;2.55;;;2.60;99.90;;;;;;4978525;28;20018;-88
2022/01/06 10:14:44;;;;;;;15.60;2.45;;;2.70;99.90;;;;;;4991090;28;20569;-87
2022/01/06 10:17:14;;;;;;;18.33;2.92;;;2.70;99.90;;;;;;4990396;28;20058;-88
2022/01/06 10:19:41;;;;;;;16.83;2.60;;;2.80;99.90;;;;;;4978327;28;20030;-88
2022/01/06 10:22:19;;;;;;;15.38;2.50;;;2.90;99.90;;;;;;4985333;28;20026;-87
2022/01/06 10:24:46;;;;;;;17.23;3.00;;;2.90;99.90;;;;;;4993329;28;20038;-87
2022/01/06 10:27:18;;;;;;;14.32;2.28;;;3.00;99.90;;;;;;5006881;28;20030;-87
2022/01/06 10:29:51;;;;;;;14.35;3.20;;;3.00;99.90;;;;;;5008734;28;20033;-87
2022/01/06 10:32:24;;;;;;;13.73;2.72;;;3.00;99.90;;;;;;4994362;28;20038;-87
2022/01/06 10:34:53;;;;;;;17.90;3.15;;;3.00;99.90;;;;;;5008840;28;20033;-87
2022/01/06 10:37:27;;;;;;;17.02;2.53;;;3.10;99.90;;;;;;5004070;28;20480;-87
2022/01/06 10:39:57;;;;;;;19.52;3.47;;;3.20;99.90;;;;;;4979023;28;20046;-87
2022/01/06 10:42:31;;;;;;;18.83;2.78;;;3.20;99.90;;;;;;4996503;28;20022;-88
2022/01/06 10:45:08;;;;;;;16.88;2.60;;;3.20;99.90;;;;;;4995828;28;20096;-88
2022/01/06 10:47:34;;;;;;;16.50;2.78;;;3.30;99.90;;;;;;4996409;28;20129;-87
2022/01/06 10:50:16;;;;;;;10.35;1.95;;;3.40;99.90;;;;;;4997115;28;20051;-87
2022/01/06 10:52:54;;;;;;;16.75;2.55;;;3.40;99.90;;;;;;4995667;28;20059;-88
2022/01/06 10:55:28;;;;;;;15.95;2.58;;;3.40;99.90;;;;;;5005760;28;20053;-87
2022/01/06 10:58:01;;;;;;;16.08;2.30;;;3.50;99.90;;;;;;4993178;28;20045;-88
2022/01/06 11:00:32;;;;;;;18.98;2.67;;;3.50;99.90;;;;;;4988378;28;20034;-87
2022/01/06 11:03:15;;;;;;;19.17;3.13;;;3.60;99.90;;;;;;4994498;28;20051;-88
2022/01/06 11:05:43;;;;;;;15.63;2.67;;;3.60;99.90;;;;;;5010686;28;20026;-89
2022/01/06 11:08:09;;;;;;;16.77;3.42;;;3.60;99.90;;;;;;4996071;28;20049;-89
2022/01/06 11:10:47;;;;;;;12.23;2.38;;;3.70;99.90;;;;;;4988844;28;20117;-88
2022/01/06 11:13:14;;;;;;;10.25;2.67;;;3.70;99.90;;;;;;4992925;28;20041;-90
2022/01/06 11:15:41;;;;;;;14.23;2.65;;;3.80;99.90;;;;;;5011079;28;20140;-88
2022/01/06 11:18:06;;;;;;;15.93;3.05;;;3.80;99.90;;;;;;5008927;28;20041;-87
2022/01/06 11:20:33;;;;;;;19.73;3.10;;;3.90;99.90;;;;;;5001994;28;20027;-89
2022/01/06 11:22:59;;;;;;;14.35;3.50;;;4.00;99.90;;;;;;4992277;28;20512;-88
2022/01/06 11:25:44;;;;;;;19.27;4.63;;;4.10;99.90;;;;;;4994420;28;20501;-88
2022/01/06 11:28:11;;;;;;;22.90;4.05;;;4.20;99.90;;;;;;4992340;28;20034;-89
2022/01/06 11:30:44;;;;;;;12.60;2.80;;;4.20;99.90;;;;;;4996137;28;20026;-89
2022/01/06 11:33:11;;;;;;;15.98;3.10;;;4.30;99.90;;;;;;4995878;28;20105;-89
2022/01/06 11:35:54;;;;;;;14.23;2.58;;;4.30;99.90;;;;;;4999818;28;20029;-89
2022/01/06 11:38:25;;;;;;;13.55;2.92;;;4.40;99.90;;;;;;4995439;28;20045;-88
2022/01/06 11:40:54;;;;;;;18.20;4.28;;;4.50;99.90;;;;;;5000519;28;20025;-89
2022/01/06 11:43:20;;;;;;;18.15;3.08;;;4.50;99.90;;;;;;4998619;28;20026;-89
2022/01/06 11:45:45;;;;;;;17.13;2.45;;;4.60;99.90;;;;;;4996991;28;20029;-89
2022/01/06 11:48:16;;;;;;;22.00;2.90;;;4.60;99.90;;;;;;4997426;28;20049;-89
2022/01/06 11:50:50;;;;;;;13.90;3.08;;;4.70;99.90;;;;;;5000399;28;20026;-89
2022/01/06 11:53:16;;;;;;;12.32;2.17;;;4.80;99.90;;;;;;5010263;28;20065;-90
2022/01/06 11:55:45;;;;;;;21.05;2.97;;;4.80;99.90;;;;;;4999692;28;20036;-88
2022/01/06 11:58:19;;;;;;;21.42;2.92;;;4.80;99.90;;;;;;5011007;28;20022;-88
2022/01/06 12:00:58;;;;;;;24.73;3.60;;;4.90;99.90;;;;;;4999270;28;20036;-90
2022/01/06 12:03:38;;;;;;;16.48;3.60;;;5.00;99.90;;;;;;4991399;28;20029;-88
2022/01/06 12:06:04;;;;;;;16.40;2.35;;;5.00;99.90;;;;;;5008331;28;20109;-88
2022/01/06 12:08:48;;;;;;;16.13;2.72;;;5.10;99.90;;;;;;4999322;28;20060;-88
2022/01/06 12:11:21;;;;;;;16.15;2.25;;;5.10;99.90;;;;;;5000428;28;20125;-87
2022/01/06 12:13:47;;;;;;;13.55;2.40;;;5.20;99.90;;;;;;4986956;28;20018;-87
2022/01/06 12:16:28;;;;;;;13.27;2.85;;;5.30;99.90;;;;;;4998128;28;20073;-87
2022/01/06 12:18:55;;;;;;;18.02;2.85;;;5.40;99.90;;;;;;4999494;28;20041;-87
2022/01/06 12:21:21;;;;;;;10.35;1.88;;;5.50;99.90;;;;;;4999505;28;20022;-87
2022/01/06 12:23:47;;;;;;;16.95;2.85;;;5.50;99.90;;;;;;4995700;28;20034;-87
2022/01/06 12:26:13;;;;;;;18.23;3.25;;;5.60;99.90;;;;;;4982587;28;21790;-88
2022/01/06 12:28:48;;;;;;;16.00;3.50;;;5.60;99.90;;;;;;4998727;28;20034;-88
2022/01/06 12:31:22;;;;;;;13.10;2.45;;;5.70;99.90;;;;;;4999334;28;20049;-88
2022/01/06 12:33:49;;;;;;;13.05;2.40;;;5.70;99.90;;;;;;5001550;28;20052;-88
2022/01/06 12:36:20;;;;;;;17.50;3.00;;;5.80;99.90;;;;;;4997027;28;20069;-89
2022/01/06 12:38:47;;;;;;;15.68;2.58;;;5.90;99.90;;;;;;4998784;28;20045;-88
2022/01/06 12:41:23;;;;;;;16.80;2.70;;;6.00;99.90;;;;;;4996891;28;20156;-86
2022/01/06 12:43:49;;;;;;;16.15;2.60;;;6.10;99.90;;;;;;4993970;28;20085;-88
2022/01/06 12:46:16;;;;;;;14.00;2.13;;;6.10;99.90;;;;;;5013986;28;20026;-88
2022/01/06 12:48:47;;;;;;;16.38;2.15;;;6.20;99.90;;;;;;4998417;28;20025;-87
2022/01/06 12:51:27;;;;;;;8.50;1.55;;;6.20;99.90;;;;;;4997155;28;20478;-88
2022/01/06 12:54:05;;;;;;;15.68;2.13;;;6.30;99.90;;;;;;4986607;28;20030;-87
2022/01/06 12:56:36;;;;;;;8.00;1.17;;;6.30;99.90;;;;;;4994051;28;20120;-84